createdAt,value
2023-05-04T00:02:29.325Z,21.90
2023-05-04T00:06:38.640Z,24.00
2023-05-04T00:10:46.556Z,21.70
2023-05-04T00:14:56.714Z,22.40
2023-05-04T00:19:04.566Z,23.30
2023-05-04T00:23:12.985Z,24.60
2023-05-04T00:27:20.482Z,22.80
2023-05-04T00:31:29.234Z,23.80
2023-05-04T00:35:37.513Z,20.90
2023-05-04T00:39:47.503Z,24.90
2023-05-04T00:43:55.292Z,21.30
2023-05-04T00:48:03.796Z,22.90
2023-05-04T00:52:14.728Z,20.00
2023-05-04T00:56:24.644Z,18.70
2023-05-04T01:00:33.077Z,18.60
2023-05-04T01:04:41.088Z,19.20
2023-05-04T01:08:52.015Z,22.40
2023-05-04T01:13:06.940Z,21.80
2023-05-04T01:17:15.965Z,21.20
2023-05-04T01:21:23.433Z,22.90
2023-05-04T01:25:35.753Z,21.40
2023-05-04T01:29:47.206Z,23.30
2023-05-04T01:33:56.209Z,23.70
2023-05-04T01:38:04.517Z,23.10
2023-05-04T01:42:12.210Z,25.90
2023-05-04T01:46:21.084Z,23.00
2023-05-04T01:50:28.941Z,22.70
2023-05-04T01:54:37.122Z,22.00
2023-05-04T01:58:44.722Z,23.40
2023-05-04T02:02:52.370Z,25.50
2023-05-04T02:07:00.214Z,27.20
2023-05-04T02:11:11.694Z,25.60
2023-05-04T02:15:20.059Z,21.40
2023-05-04T02:19:28.227Z,21.80
2023-05-04T02:23:35.558Z,25.00
2023-05-04T02:27:43.231Z,25.40
2023-05-04T02:31:51.431Z,23.90
2023-05-04T02:36:00.288Z,23.10
2023-05-04T02:40:10.184Z,23.40
2023-05-04T02:44:18.616Z,21.70
2023-05-04T02:48:28.094Z,19.30
2023-05-04T02:52:38.436Z,23.90
2023-05-04T02:56:46.728Z,21.40
2023-05-04T03:00:57.892Z,23.20
2023-05-04T03:05:05.913Z,20.80
2023-05-04T03:09:13.918Z,19.20
2023-05-04T03:13:21.541Z,19.10
2023-05-04T03:17:29.670Z,19.80
2023-05-04T03:21:37.094Z,19.70
2023-05-04T03:25:44.970Z,18.90
2023-05-04T03:29:53.214Z,16.90
2023-05-04T03:34:01.124Z,17.30
2023-05-04T03:38:10.004Z,21.30
2023-05-04T03:42:17.715Z,22.40
2023-05-04T03:46:25.841Z,22.20
2023-05-04T03:50:34.587Z,23.50
2023-05-04T03:54:42.096Z,28.20
2023-05-04T03:58:49.592Z,22.50
2023-05-04T04:02:57.784Z,23.60
2023-05-04T04:07:05.554Z,18.60
2023-05-04T04:11:13.198Z,23.00
2023-05-04T04:15:20.948Z,25.60
2023-05-04T04:19:28.779Z,24.00
2023-05-04T04:23:37.144Z,27.00
2023-05-04T04:27:45.499Z,25.60
2023-05-04T04:31:53.287Z,26.90
2023-05-04T04:36:01.257Z,25.80
2023-05-04T04:40:13.175Z,21.00
2023-05-04T04:44:22.291Z,24.10
2023-05-04T04:48:30.378Z,19.90
2023-05-04T04:52:38.708Z,21.40
2023-05-04T04:56:47.694Z,19.70
2023-05-04T05:00:58.924Z,24.80
2023-05-04T05:05:07.587Z,21.90
2023-05-04T05:09:17.105Z,21.60
2023-05-04T05:13:24.868Z,23.20
2023-05-04T05:17:32.702Z,22.50
2023-05-04T05:21:40.568Z,21.60
2023-05-04T05:25:48.238Z,25.10
2023-05-04T05:29:57.530Z,25.10
2023-05-04T05:34:05.221Z,23.00
2023-05-04T05:38:12.964Z,23.60
2023-05-04T05:42:21.455Z,27.10
2023-05-04T05:46:29.423Z,23.80
2023-05-04T05:50:37.833Z,23.50
2023-05-04T05:54:45.622Z,25.70
2023-05-04T05:58:56.012Z,22.80
2023-05-04T06:03:04.217Z,22.90
2023-05-04T06:07:13.581Z,23.20
2023-05-04T06:11:21.756Z,25.10
2023-05-04T06:15:30.221Z,25.30
2023-05-04T06:19:39.674Z,24.10
2023-05-04T06:23:47.866Z,21.60
2023-05-04T06:27:56.142Z,23.10
2023-05-04T06:32:03.972Z,19.20
2023-05-04T06:36:11.888Z,21.20
2023-05-04T06:40:21.057Z,22.30
2023-05-04T06:44:29.056Z,21.90
2023-05-04T06:48:37.227Z,20.00
2023-05-04T06:52:48.204Z,19.70
2023-05-04T06:56:56.158Z,19.10
2023-05-04T07:01:04.056Z,17.30
2023-05-04T07:05:13.165Z,15.10
2023-05-04T07:09:23.517Z,15.10
2023-05-04T07:13:30.769Z,10.80
2023-05-04T07:17:39.763Z,10.50
2023-05-04T07:21:47.546Z,11.90
2023-05-04T07:25:55.826Z,11.50
2023-05-04T07:30:06.643Z,9.70
2023-05-04T07:34:15.690Z,10.70
2023-05-04T07:38:23.846Z,10.30
2023-05-04T07:42:32.167Z,12.00
2023-05-04T07:46:40.912Z,11.40
2023-05-04T07:50:49.097Z,12.40
2023-05-04T07:54:57.173Z,10.00
2023-05-04T07:59:05.383Z,12.70
2023-05-04T08:03:13.133Z,10.80
2023-05-04T08:07:22.779Z,9.10
2023-05-04T08:11:32.200Z,9.60
2023-05-04T08:15:39.901Z,10.00
2023-05-04T08:19:47.535Z,10.90
2023-05-04T08:23:55.586Z,9.40
2023-05-04T08:28:03.881Z,11.20
2023-05-04T08:32:11.957Z,10.30
2023-05-04T08:36:20.939Z,12.90
2023-05-04T08:40:29.520Z,9.90
2023-05-04T08:44:38.839Z,9.90
2023-05-04T08:48:47.719Z,8.70
2023-05-04T08:52:56.286Z,8.00
2023-05-04T08:57:07.496Z,11.70
2023-05-04T09:01:16.499Z,8.40
2023-05-04T09:05:24.842Z,7.60
2023-05-04T09:09:32.579Z,9.60
2023-05-04T09:13:43.247Z,8.70
2023-05-04T09:18:03.912Z,8.30
2023-05-04T09:22:20.307Z,10.10
2023-05-04T09:26:32.576Z,8.10
2023-05-04T09:30:42.234Z,9.40
2023-05-04T09:34:54.867Z,9.30
2023-05-04T09:39:14.248Z,9.10
2023-05-04T09:43:23.505Z,9.00
2023-05-04T09:47:38.634Z,10.30
2023-05-04T09:51:47.372Z,9.40
2023-05-04T09:56:05.739Z,9.00
2023-05-04T10:00:17.844Z,9.80
2023-05-04T10:04:26.424Z,10.10
2023-05-04T10:08:35.377Z,7.80
2023-05-04T10:12:44.227Z,8.50
2023-05-04T10:16:58.565Z,8.00
2023-05-04T10:21:17.983Z,9.60
2023-05-04T10:25:48.973Z,10.20
2023-05-04T10:29:56.602Z,7.80
2023-05-04T10:34:06.093Z,8.40
2023-05-04T10:38:14.846Z,8.00
2023-05-04T10:42:22.963Z,7.70
2023-05-04T10:46:31.720Z,8.10
2023-05-04T10:50:47.481Z,11.00
2023-05-04T10:55:04.997Z,8.70
2023-05-04T10:59:15.344Z,7.90
2023-05-04T11:03:25.379Z,7.20
2023-05-04T11:07:41.405Z,8.40
2023-05-04T11:11:49.605Z,7.40
2023-05-04T11:15:58.994Z,9.90
2023-05-04T11:20:10.898Z,9.30
2023-05-04T11:24:18.115Z,9.30
2023-05-04T11:28:36.624Z,9.50
2023-05-04T11:32:46.744Z,9.50
2023-05-04T11:36:55.421Z,8.20
2023-05-04T11:41:02.884Z,8.40
2023-05-04T11:45:16.658Z,7.20
2023-05-04T11:49:27.066Z,9.00
2023-05-04T11:53:41.470Z,9.10
2023-05-04T11:58:00.236Z,8.40
2023-05-04T12:02:16.231Z,9.90
2023-05-04T12:06:41.922Z,10.30
2023-05-04T12:10:50.056Z,8.00
2023-05-04T12:14:59.028Z,9.50
2023-05-04T12:19:20.068Z,8.30
2023-05-04T12:23:30.975Z,10.50
2023-05-04T12:27:43.879Z,10.40
2023-05-04T12:31:51.655Z,10.90
2023-05-04T12:36:00.505Z,8.80
2023-05-04T12:40:27.185Z,10.10
2023-05-04T12:44:36.860Z,8.80
2023-05-04T12:48:44.190Z,9.30
2023-05-04T12:52:52.384Z,9.20
2023-05-04T12:56:59.993Z,9.30
2023-05-04T13:01:08.025Z,8.30
2023-05-04T13:05:16.924Z,10.70
2023-05-04T13:09:24.654Z,11.20
2023-05-04T13:13:33.606Z,10.00
2023-05-04T13:17:43.469Z,9.60
2023-05-04T13:21:51.217Z,7.60
2023-05-04T13:25:59.283Z,10.10
2023-05-04T13:30:10.907Z,10.00
2023-05-04T13:34:18.336Z,10.50
2023-05-04T13:38:27.473Z,8.80
2023-05-04T13:42:37.167Z,11.80
2023-05-04T13:46:45.069Z,10.40
2023-05-04T13:50:53.453Z,7.50
2023-05-04T13:55:01.058Z,8.60
2023-05-04T13:59:09.482Z,7.90
2023-05-04T14:03:18.007Z,8.60
2023-05-04T14:07:25.754Z,9.60
2023-05-04T14:11:33.280Z,9.50
2023-05-04T14:15:42.608Z,10.10
2023-05-04T14:19:50.884Z,9.00
2023-05-04T14:23:58.834Z,10.40
2023-05-04T14:28:07.047Z,9.40
2023-05-04T14:32:16.901Z,9.00
2023-05-04T14:36:24.806Z,8.90
2023-05-04T14:40:32.823Z,8.40
2023-05-04T14:44:40.299Z,10.10
2023-05-04T14:48:48.450Z,8.00
2023-05-04T14:52:56.184Z,8.30
2023-05-04T14:57:04.600Z,7.80
2023-05-04T15:01:13.687Z,7.10
2023-05-04T15:05:21.556Z,9.10
2023-05-04T15:09:29.450Z,9.40
2023-05-04T15:13:37.827Z,8.50
2023-05-04T15:17:45.456Z,7.80
2023-05-04T15:21:53.724Z,11.10
2023-05-04T15:26:02.675Z,8.20
2023-05-04T15:30:12.734Z,7.80
2023-05-04T15:34:21.710Z,8.10
2023-05-04T15:38:30.203Z,8.80
2023-05-04T15:42:37.888Z,7.80
2023-05-04T15:46:49.032Z,7.40
2023-05-04T15:50:57.428Z,8.90
2023-05-04T15:55:17.003Z,8.00
2023-05-04T15:59:36.001Z,9.80
2023-05-04T16:03:45.313Z,8.60
2023-05-04T16:07:54.239Z,8.40
2023-05-04T16:12:02.953Z,8.90
2023-05-04T16:16:13.057Z,8.30
2023-05-04T16:20:23.291Z,7.50
2023-05-04T16:24:31.951Z,9.20
2023-05-04T16:28:40.869Z,8.80
2023-05-04T16:32:50.931Z,9.10
2023-05-04T16:36:58.577Z,9.70
2023-05-04T16:41:07.437Z,8.70
2023-05-04T16:45:16.127Z,7.80
2023-05-04T16:49:24.465Z,7.50
2023-05-04T16:53:32.353Z,8.40
2023-05-04T16:57:40.598Z,7.70
2023-05-04T17:01:48.649Z,7.80
2023-05-04T17:05:57.394Z,7.10
2023-05-04T17:10:05.420Z,8.40
2023-05-04T17:14:13.604Z,9.60
2023-05-04T17:18:21.363Z,9.40
2023-05-04T17:22:29.223Z,8.30
2023-05-04T17:26:39.337Z,9.00
2023-05-04T17:30:47.877Z,8.80
2023-05-04T17:34:59.700Z,6.10
2023-05-04T17:39:10.784Z,7.90
2023-05-04T17:43:18.918Z,7.00
2023-05-04T17:47:27.003Z,6.60
2023-05-04T17:51:35.044Z,8.10
2023-05-04T17:55:43.570Z,7.60
2023-05-04T17:59:51.070Z,7.70
2023-05-04T18:03:59.045Z,7.90
2023-05-04T18:08:07.793Z,7.40
2023-05-04T18:12:15.688Z,11.30
2023-05-04T18:16:23.814Z,7.90
2023-05-04T18:20:32.092Z,6.70
2023-05-04T18:24:39.995Z,7.90
2023-05-04T18:28:47.560Z,7.00
2023-05-04T18:32:55.429Z,6.00
2023-05-04T18:37:04.223Z,7.80
2023-05-04T18:41:12.050Z,9.20
2023-05-04T18:45:20.380Z,7.10
2023-05-04T18:49:29.286Z,8.00
2023-05-04T18:53:37.480Z,7.80
2023-05-04T18:57:46.117Z,9.10
2023-05-04T19:01:55.020Z,9.10
2023-05-04T19:06:03.204Z,7.70
2023-05-04T19:10:12.711Z,9.40
2023-05-04T19:14:20.686Z,12.10
2023-05-04T19:18:28.916Z,8.70
2023-05-04T19:22:37.362Z,11.20
2023-05-04T19:26:46.228Z,9.40
2023-05-04T19:30:54.326Z,10.10
2023-05-04T19:35:02.047Z,11.90
2023-05-04T19:39:11.330Z,12.20
2023-05-04T19:43:23.569Z,11.70
2023-05-04T19:47:33.229Z,10.90
2023-05-04T19:51:40.673Z,13.50
2023-05-04T19:55:48.194Z,13.90
2023-05-04T19:59:56.832Z,13.40
2023-05-04T20:04:06.206Z,12.70
2023-05-04T20:08:14.866Z,13.40
2023-05-04T20:12:22.756Z,11.30
2023-05-04T20:16:31.239Z,11.40
2023-05-04T20:20:39.199Z,12.00
2023-05-04T20:24:47.071Z,13.70
2023-05-04T20:28:54.491Z,15.20
2023-05-04T20:33:02.330Z,15.00
2023-05-04T20:37:14.112Z,14.60
2023-05-04T20:41:24.301Z,14.90
2023-05-04T20:45:34.465Z,15.20
2023-05-04T20:49:42.434Z,16.60
2023-05-04T20:53:51.180Z,14.80
2023-05-04T20:57:58.994Z,14.90
2023-05-04T21:02:08.225Z,16.80
2023-05-04T21:06:16.139Z,17.40
2023-05-04T21:10:26.841Z,22.80
2023-05-04T21:14:36.847Z,21.00
2023-05-04T21:18:44.927Z,21.60
2023-05-04T21:22:52.659Z,23.00
2023-05-04T21:27:01.133Z,16.10
2023-05-04T21:31:11.646Z,18.40
2023-05-04T21:35:21.267Z,19.10
2023-05-04T21:39:29.747Z,16.30
2023-05-04T21:43:36.978Z,16.10
2023-05-04T21:47:44.645Z,13.90
2023-05-04T21:51:52.643Z,20.00
2023-05-04T21:56:00.488Z,17.10
2023-05-04T22:00:12.805Z,17.00
2023-05-04T22:04:21.003Z,16.80
2023-05-04T22:08:29.573Z,17.10
2023-05-04T22:12:37.696Z,17.60
2023-05-04T22:16:46.692Z,15.50
2023-05-04T22:20:55.319Z,16.50
2023-05-04T22:25:02.855Z,16.80
2023-05-04T22:29:11.354Z,15.20
2023-05-04T22:33:20.063Z,16.10
2023-05-04T22:37:27.780Z,14.80
2023-05-04T22:41:35.395Z,13.40
2023-05-04T22:45:43.628Z,14.90
2023-05-04T22:49:55.164Z,14.50
2023-05-04T22:54:04.213Z,15.70
2023-05-04T22:58:13.118Z,15.70
2023-05-04T23:02:21.361Z,14.60
2023-05-04T23:06:30.188Z,15.80
2023-05-04T23:10:38.218Z,13.80
2023-05-04T23:14:47.648Z,19.90
2023-05-04T23:18:56.164Z,16.40
2023-05-04T23:23:03.622Z,15.90
2023-05-04T23:27:12.442Z,15.20
2023-05-04T23:31:21.261Z,13.90
2023-05-04T23:35:29.701Z,15.80
2023-05-04T23:39:37.736Z,14.50
2023-05-04T23:43:45.566Z,17.10
2023-05-04T23:47:56.832Z,13.90
2023-05-04T23:52:05.801Z,20.20
2023-05-04T23:56:14.715Z,15.90
